createdAt,value
2023-03-29T00:00:57.490Z,72.85
2023-03-29T00:03:23.833Z,73.15
2023-03-29T00:05:50.181Z,74.01
2023-03-29T00:08:16.543Z,74.72
2023-03-29T00:10:42.837Z,75.54
2023-03-29T00:13:09.158Z,76.19
2023-03-29T00:15:35.612Z,76.93
2023-03-29T00:18:02.027Z,77.81
2023-03-29T00:20:28.369Z,77.88
2023-03-29T00:22:54.734Z,78.26
2023-03-29T00:25:21.082Z,78.26
2023-03-29T00:27:47.417Z,78.90
2023-03-29T00:30:13.826Z,79.28
2023-03-29T00:32:40.194Z,79.87
2023-03-29T00:35:06.821Z,81.04
2023-03-29T00:37:33.547Z,81.71
2023-03-29T00:39:59.919Z,82.06
2023-03-29T00:42:26.686Z,82.52
2023-03-29T00:45:17.557Z,82.55
2023-03-29T00:47:48.687Z,82.81
2023-03-29T00:50:24.520Z,83.29
2023-03-29T00:52:58.063Z,82.32
2023-03-29T00:55:27.549Z,82.78
2023-03-29T00:57:56.545Z,82.16
2023-03-29T01:00:28.820Z,82.64
2023-03-29T01:02:58.941Z,83.21
2023-03-29T01:05:31.231Z,82.98
2023-03-29T01:08:05.748Z,83.54
2023-03-29T01:11:10.688Z,84.52
2023-03-29T01:13:41.637Z,84.94
2023-03-29T01:16:11.248Z,84.93
2023-03-29T01:18:37.982Z,84.53
2023-03-29T01:21:39.356Z,84.96
2023-03-29T01:24:28.225Z,85.37
2023-03-29T01:27:05.228Z,85.04
2023-03-29T01:29:36.962Z,84.52
2023-03-29T01:32:18.154Z,84.36
2023-03-29T01:35:05.767Z,84.52
2023-03-29T01:37:55.373Z,85.08
2023-03-29T01:40:21.738Z,85.37
2023-03-29T01:43:05.600Z,85.38
2023-03-29T01:45:56.120Z,85.10
2023-03-29T01:48:42.270Z,84.89
2023-03-29T01:51:22.520Z,85.56
2023-03-29T01:54:01.234Z,85.58
2023-03-29T01:56:30.365Z,85.72
2023-03-29T01:59:02.285Z,86.07
2023-03-29T02:01:33.002Z,86.01
2023-03-29T02:04:03.173Z,85.50
2023-03-29T02:06:32.617Z,85.64
2023-03-29T02:08:59.605Z,85.56
2023-03-29T02:11:26.388Z,85.70
2023-03-29T02:13:53.124Z,86.20
2023-03-29T02:16:20.280Z,86.12
2023-03-29T02:18:48.873Z,85.98
2023-03-29T02:21:29.687Z,86.07
2023-03-29T02:23:59.443Z,86.18
2023-03-29T02:26:25.890Z,86.11
2023-03-29T02:28:52.330Z,85.82
2023-03-29T02:31:49.904Z,85.19
2023-03-29T02:34:23.286Z,84.87
2023-03-29T02:36:59.075Z,84.85
2023-03-29T02:39:27.804Z,84.93
2023-03-29T02:41:54.845Z,85.22
2023-03-29T02:44:23.879Z,84.85
2023-03-29T02:46:53.105Z,84.93
2023-03-29T02:49:19.662Z,85.06
2023-03-29T02:51:48.917Z,84.97
2023-03-29T02:54:18.525Z,84.66
2023-03-29T02:56:47.757Z,84.91
2023-03-29T02:59:15.497Z,84.93
2023-03-29T03:01:41.913Z,84.12
2023-03-29T03:04:09.418Z,83.91
2023-03-29T03:06:36.842Z,84.67
2023-03-29T03:09:04.396Z,85.28
2023-03-29T03:11:31.443Z,84.89
2023-03-29T03:13:58.108Z,85.66
2023-03-29T03:16:24.576Z,85.75
2023-03-29T03:18:51.502Z,85.77
2023-03-29T03:21:18.620Z,84.87
2023-03-29T03:23:46.188Z,84.80
2023-03-29T03:26:13.295Z,84.71
2023-03-29T03:28:39.636Z,84.92
2023-03-29T03:31:06.675Z,85.01
2023-03-29T03:33:33.387Z,84.72
2023-03-29T03:36:00.420Z,84.74
2023-03-29T03:38:26.716Z,84.86
2023-03-29T03:40:56.940Z,84.70
2023-03-29T03:43:23.685Z,84.75
2023-03-29T03:45:50.245Z,84.72
2023-03-29T03:48:16.877Z,84.83
2023-03-29T03:50:49.442Z,84.11
2023-03-29T03:53:15.794Z,83.10
2023-03-29T03:55:42.296Z,83.25
2023-03-29T03:58:08.697Z,83.08
2023-03-29T04:00:35.114Z,82.49
2023-03-29T04:03:01.586Z,82.32
2023-03-29T04:05:28.172Z,82.37
2023-03-29T04:07:54.489Z,82.24
2023-03-29T04:10:20.790Z,82.51
2023-03-29T04:12:47.124Z,82.53
2023-03-29T04:15:13.481Z,82.50
2023-03-29T04:17:39.930Z,82.50
2023-03-29T04:20:06.769Z,81.96
2023-03-29T04:22:33.089Z,82.24
2023-03-29T04:24:59.399Z,81.98
2023-03-29T04:27:25.720Z,82.22
2023-03-29T04:29:52.046Z,82.02
2023-03-29T04:32:18.351Z,81.79
2023-03-29T04:34:44.903Z,81.83
2023-03-29T04:37:11.232Z,81.71
2023-03-29T04:39:37.952Z,81.70
2023-03-29T04:42:05.060Z,81.98
2023-03-29T04:44:31.743Z,81.80
2023-03-29T04:46:58.062Z,82.17
2023-03-29T04:49:26.123Z,82.24
2023-03-29T04:51:52.619Z,82.39
2023-03-29T04:54:19.036Z,82.38
2023-03-29T04:56:45.389Z,82.24
2023-03-29T04:59:11.742Z,81.95
2023-03-29T05:01:38.115Z,81.71
2023-03-29T05:04:04.588Z,81.75
2023-03-29T05:06:30.926Z,81.85
2023-03-29T05:08:57.214Z,81.95
2023-03-29T05:11:23.531Z,81.29
2023-03-29T05:13:49.845Z,81.27
2023-03-29T05:16:16.200Z,82.19
2023-03-29T05:18:42.551Z,82.43
2023-03-29T05:21:08.861Z,82.97
2023-03-29T05:23:35.301Z,83.30
2023-03-29T05:26:01.596Z,83.15
2023-03-29T05:28:27.924Z,82.98
2023-03-29T05:31:02.601Z,82.59
2023-03-29T05:33:28.984Z,82.40
2023-03-29T05:36:06.624Z,82.09
2023-03-29T05:38:33.379Z,80.18
2023-03-29T05:41:00.721Z,79.76
2023-03-29T05:43:28.119Z,80.57
2023-03-29T05:45:56.025Z,81.08
2023-03-29T05:48:23.377Z,80.75
2023-03-29T05:50:50.941Z,79.80
2023-03-29T05:53:17.857Z,79.24
2023-03-29T05:55:44.851Z,78.93
2023-03-29T05:58:11.174Z,79.39
2023-03-29T06:00:38.219Z,79.63
2023-03-29T06:03:17.664Z,79.88
2023-03-29T06:05:49.118Z,79.44
2023-03-29T06:08:16.850Z,79.62
2023-03-29T06:10:43.906Z,79.41
2023-03-29T06:13:10.233Z,79.97
2023-03-29T06:15:36.536Z,80.72
2023-03-29T06:18:03.442Z,80.85
2023-03-29T06:20:29.901Z,79.49
2023-03-29T06:22:56.218Z,79.98
2023-03-29T06:25:22.613Z,79.75
2023-03-29T06:27:48.958Z,78.77
2023-03-29T06:30:15.997Z,79.08
2023-03-29T06:32:42.819Z,78.73
2023-03-29T06:35:10.212Z,78.50
2023-03-29T06:37:37.449Z,78.54
2023-03-29T06:40:04.149Z,78.02
2023-03-29T06:42:30.453Z,77.06
2023-03-29T06:44:56.765Z,77.21
2023-03-29T06:47:23.119Z,76.76
2023-03-29T06:49:49.474Z,76.19
2023-03-29T06:52:15.785Z,76.51
2023-03-29T06:54:42.107Z,76.02
2023-03-29T06:57:08.481Z,75.97
2023-03-29T06:59:35.006Z,75.78
2023-03-29T07:02:01.459Z,74.93
2023-03-29T07:04:27.860Z,74.74
2023-03-29T07:06:54.229Z,75.21
2023-03-29T07:09:20.615Z,74.92
2023-03-29T07:11:46.924Z,75.04
2023-03-29T07:14:13.245Z,75.49
2023-03-29T07:16:39.587Z,75.79
2023-03-29T07:19:05.943Z,75.20
2023-03-29T07:21:32.229Z,75.11
2023-03-29T07:23:58.571Z,75.88
2023-03-29T07:26:28.363Z,76.78
2023-03-29T07:28:55.918Z,77.06
2023-03-29T07:31:22.227Z,77.79
2023-03-29T07:33:48.654Z,76.73
2023-03-29T07:36:15.068Z,76.67
2023-03-29T07:38:41.379Z,76.34
2023-03-29T07:41:07.742Z,76.09
2023-03-29T07:43:34.231Z,76.39
2023-03-29T07:46:02.271Z,76.32
2023-03-29T07:48:28.621Z,75.87
2023-03-29T07:50:55.120Z,76.16
2023-03-29T07:53:21.569Z,76.70
2023-03-29T07:55:47.966Z,76.41
2023-03-29T07:58:14.727Z,76.64
2023-03-29T08:00:41.296Z,77.22
2023-03-29T08:03:11.126Z,79.27
2023-03-29T08:05:41.677Z,80.39
2023-03-29T08:08:08.563Z,80.60
2023-03-29T08:10:37.513Z,79.40
2023-03-29T08:13:05.732Z,79.17
2023-03-29T08:15:33.829Z,79.32
2023-03-29T08:18:00.235Z,78.71
2023-03-29T08:20:26.702Z,78.88
2023-03-29T08:22:54.414Z,78.79
2023-03-29T08:25:20.765Z,79.39
2023-03-29T08:27:47.143Z,79.20
2023-03-29T08:30:13.665Z,78.89
2023-03-29T08:32:40.181Z,78.08
2023-03-29T08:35:07.495Z,77.79
2023-03-29T08:37:33.994Z,78.59
2023-03-29T08:40:01.143Z,79.29
2023-03-29T08:43:26.299Z,78.96
2023-03-29T08:46:21.823Z,78.45
2023-03-29T08:48:56.125Z,78.82
2023-03-29T08:51:28.005Z,78.18
2023-03-29T08:54:05.565Z,78.35
2023-03-29T08:56:36.101Z,78.63
2023-03-29T08:59:03.012Z,79.02
2023-03-29T09:01:34.398Z,79.93
2023-03-29T09:04:00.779Z,79.21
2023-03-29T09:06:27.190Z,78.46
2023-03-29T09:08:53.584Z,77.52
2023-03-29T09:11:41.884Z,76.56
2023-03-29T09:15:08.168Z,76.64
2023-03-29T09:17:52.812Z,76.85
2023-03-29T09:20:47.530Z,76.29
2023-03-29T09:23:44.609Z,75.08
2023-03-29T09:26:39.701Z,74.03
2023-03-29T09:29:08.314Z,72.79
2023-03-29T09:31:43.043Z,72.93
2023-03-29T09:34:22.868Z,71.11
2023-03-29T09:36:51.085Z,71.35
2023-03-29T09:39:17.846Z,71.02
2023-03-29T09:41:56.548Z,71.09
2023-03-29T09:44:31.376Z,71.46
2023-03-29T09:47:35.442Z,71.23
2023-03-29T09:50:29.566Z,73.15
2023-03-29T09:52:57.686Z,72.75
2023-03-29T09:55:29.127Z,72.49
2023-03-29T09:58:00.353Z,72.62
2023-03-29T10:00:26.725Z,72.33
2023-03-29T10:02:56.166Z,72.64
2023-03-29T10:05:24.808Z,71.76
2023-03-29T10:07:53.864Z,71.37
2023-03-29T10:10:28.381Z,72.36
2023-03-29T10:13:00.697Z,72.74
2023-03-29T10:15:30.417Z,72.81
2023-03-29T10:18:02.299Z,74.00
2023-03-29T10:20:29.132Z,73.77
2023-03-29T10:22:57.555Z,73.57
2023-03-29T10:25:30.089Z,72.86
2023-03-29T10:28:16.852Z,73.23
2023-03-29T10:30:47.238Z,71.57
2023-03-29T10:33:20.786Z,70.39
2023-03-29T10:35:48.197Z,71.25
2023-03-29T10:38:17.906Z,70.51
2023-03-29T10:40:47.561Z,71.71
2023-03-29T10:43:19.690Z,73.07
2023-03-29T10:45:54.290Z,73.86
2023-03-29T10:48:28.861Z,74.05
2023-03-29T10:51:00.290Z,74.51
2023-03-29T10:53:29.179Z,75.61
2023-03-29T10:56:13.598Z,77.02
2023-03-29T10:59:18.638Z,77.65
2023-03-29T11:01:54.429Z,77.63
2023-03-29T11:04:42.513Z,77.72
2023-03-29T11:07:25.699Z,78.14
2023-03-29T11:10:04.657Z,78.29
2023-03-29T11:12:31.012Z,77.48
2023-03-29T11:15:22.853Z,76.77
2023-03-29T11:18:16.641Z,77.00
2023-03-29T11:20:56.010Z,76.88
2023-03-29T11:23:55.172Z,79.14
2023-03-29T11:26:33.338Z,80.22
2023-03-29T11:29:10.470Z,80.78
2023-03-29T11:31:53.705Z,82.67
2023-03-29T11:34:36.881Z,82.38
2023-03-29T11:37:16.606Z,82.46
2023-03-29T11:40:12.238Z,80.11
2023-03-29T11:42:41.009Z,78.70
2023-03-29T11:45:14.985Z,77.94
2023-03-29T11:47:42.959Z,78.14
2023-03-29T11:50:19.235Z,77.05
2023-03-29T11:53:00.913Z,76.71
2023-03-29T11:55:31.120Z,77.02
2023-03-29T11:58:03.384Z,76.34
2023-03-29T12:00:36.811Z,76.02
2023-03-29T12:03:30.033Z,77.10
2023-03-29T12:06:04.041Z,78.39
2023-03-29T12:08:40.406Z,77.62
2023-03-29T12:11:20.214Z,76.85
2023-03-29T12:14:10.268Z,77.24
2023-03-29T12:16:46.973Z,76.51
2023-03-29T12:19:31.148Z,77.04
2023-03-29T12:21:59.436Z,77.96
2023-03-29T12:24:29.695Z,78.41
2023-03-29T12:27:02.010Z,77.77
2023-03-29T12:30:02.357Z,77.73
2023-03-29T12:32:38.625Z,77.82
2023-03-29T12:35:11.003Z,79.59
2023-03-29T12:37:37.242Z,80.49
2023-03-29T12:40:16.204Z,81.95
2023-03-29T12:43:06.841Z,83.25
2023-03-29T12:45:44.060Z,84.33
2023-03-29T12:48:16.895Z,84.23
2023-03-29T12:50:49.726Z,84.80
2023-03-29T12:53:26.331Z,86.30
2023-03-29T12:56:14.321Z,86.77
2023-03-29T12:58:53.445Z,86.63
2023-03-29T13:01:33.352Z,86.87
2023-03-29T13:03:59.669Z,86.71
2023-03-29T13:06:34.672Z,86.06
2023-03-29T13:09:19.300Z,86.35
2023-03-29T13:11:53.298Z,85.96
2023-03-29T13:14:24.864Z,85.48
2023-03-29T13:16:51.493Z,83.00
2023-03-29T13:19:35.599Z,80.33
2023-03-29T13:22:18.348Z,79.94
2023-03-29T13:24:57.171Z,79.10
2023-03-29T13:27:41.866Z,80.39
2023-03-29T13:30:24.219Z,80.63
2023-03-29T13:33:28.589Z,80.88
2023-03-29T13:36:13.887Z,81.86
2023-03-29T13:38:50.755Z,80.70
2023-03-29T13:41:40.308Z,81.95
2023-03-29T13:44:21.908Z,81.59
2023-03-29T13:46:49.765Z,83.10
2023-03-29T13:49:23.081Z,82.72
2023-03-29T13:52:05.023Z,81.98
2023-03-29T13:54:43.947Z,81.02
2023-03-29T13:57:19.604Z,78.99
2023-03-29T14:00:39.974Z,79.08
2023-03-29T14:03:12.325Z,80.15
2023-03-29T14:05:43.165Z,79.85
2023-03-29T14:08:23.319Z,80.39
2023-03-29T14:10:50.084Z,80.98
2023-03-29T14:13:23.093Z,81.16
2023-03-29T14:15:55.108Z,81.46
2023-03-29T14:18:23.712Z,81.25
2023-03-29T14:20:52.232Z,82.36
2023-03-29T14:23:24.714Z,82.72
2023-03-29T14:25:51.046Z,82.76
2023-03-29T14:28:23.183Z,82.42
2023-03-29T14:30:50.159Z,81.42
2023-03-29T14:33:29.705Z,81.11
2023-03-29T14:35:58.401Z,81.89
2023-03-29T14:38:26.303Z,82.47
2023-03-29T14:40:52.980Z,81.86
2023-03-29T14:43:21.738Z,82.67
2023-03-29T14:45:49.530Z,83.08
2023-03-29T14:48:16.630Z,82.60
2023-03-29T14:50:45.384Z,82.72
2023-03-29T14:53:23.271Z,83.27
2023-03-29T14:55:52.000Z,83.30
2023-03-29T14:58:29.211Z,82.80
2023-03-29T15:00:55.545Z,82.72
2023-03-29T15:03:22.071Z,82.49
2023-03-29T15:06:06.557Z,81.48
2023-03-29T15:08:36.078Z,81.51
2023-03-29T15:11:02.927Z,82.27
2023-03-29T15:13:30.506Z,82.98
2023-03-29T15:16:01.869Z,84.68
2023-03-29T15:18:35.097Z,84.87
2023-03-29T15:21:02.112Z,85.39
2023-03-29T15:23:54.931Z,85.23
2023-03-29T15:26:28.502Z,84.49
2023-03-29T15:29:05.123Z,84.20
2023-03-29T15:31:39.898Z,83.99
2023-03-29T15:34:11.545Z,83.64
2023-03-29T15:36:42.823Z,83.08
2023-03-29T15:39:13.865Z,83.53
2023-03-29T15:41:41.414Z,83.81
2023-03-29T15:44:08.315Z,84.15
2023-03-29T15:46:34.742Z,83.89
2023-03-29T15:49:01.188Z,83.77
2023-03-29T15:51:27.612Z,84.21
2023-03-29T15:53:53.893Z,84.49
2023-03-29T15:56:21.486Z,85.55
2023-03-29T15:58:48.344Z,85.22
2023-03-29T16:01:31.477Z,84.26
2023-03-29T16:03:57.802Z,82.88
2023-03-29T16:06:24.103Z,82.58
2023-03-29T16:08:50.418Z,82.52
2023-03-29T16:11:16.730Z,82.02
2023-03-29T16:13:43.073Z,81.55
2023-03-29T16:16:12.197Z,82.08
2023-03-29T16:18:38.599Z,81.37
2023-03-29T16:21:05.277Z,80.42
2023-03-29T16:23:31.721Z,80.71
2023-03-29T16:25:58.046Z,81.98
2023-03-29T16:28:25.064Z,81.59
2023-03-29T16:30:51.404Z,82.12
2023-03-29T16:33:17.699Z,81.71
2023-03-29T16:35:44.036Z,81.44
2023-03-29T16:38:10.464Z,81.57
2023-03-29T16:40:36.925Z,82.36
2023-03-29T16:43:03.719Z,82.55
2023-03-29T16:45:30.038Z,82.89
2023-03-29T16:47:56.967Z,84.04
2023-03-29T16:50:23.396Z,84.22
2023-03-29T16:52:49.822Z,83.79
2023-03-29T16:55:16.311Z,84.60
2023-03-29T16:57:42.631Z,85.10
2023-03-29T17:00:11.268Z,84.84
2023-03-29T17:02:37.625Z,85.04
2023-03-29T17:05:04.243Z,85.31
2023-03-29T17:07:30.554Z,86.33
2023-03-29T17:09:56.857Z,87.80
2023-03-29T17:12:23.328Z,88.18
2023-03-29T17:14:49.728Z,88.15
2023-03-29T17:17:16.064Z,88.34
2023-03-29T17:19:42.365Z,88.39
2023-03-29T17:22:08.673Z,88.37
2023-03-29T17:24:35.003Z,88.63
2023-03-29T17:27:01.339Z,88.50
2023-03-29T17:29:27.656Z,88.35
2023-03-29T17:31:54.851Z,88.67
2023-03-29T17:34:21.187Z,89.13
2023-03-29T17:36:47.552Z,89.82
2023-03-29T17:39:13.937Z,89.67
2023-03-29T17:41:40.233Z,89.43
2023-03-29T17:44:06.540Z,89.29
2023-03-29T17:46:32.897Z,89.47
2023-03-29T17:48:59.236Z,90.14
2023-03-29T17:51:26.404Z,90.46
2023-03-29T17:53:52.896Z,90.11
2023-03-29T17:56:19.487Z,90.24
2023-03-29T17:58:46.473Z,90.51
2023-03-29T18:01:13.589Z,90.30
2023-03-29T18:03:39.983Z,90.65
2023-03-29T18:06:06.806Z,91.06
2023-03-29T18:08:33.279Z,91.86
2023-03-29T18:11:11.055Z,91.92
2023-03-29T18:13:38.685Z,92.96
2023-03-29T18:16:06.153Z,93.58
2023-03-29T18:18:33.716Z,94.04
2023-03-29T18:21:00.672Z,94.17
2023-03-29T18:23:27.284Z,93.68
2023-03-29T18:26:04.240Z,93.86
2023-03-29T18:28:32.345Z,93.10
2023-03-29T18:30:58.694Z,93.63
2023-03-29T18:33:25.250Z,93.47
2023-03-29T18:35:51.911Z,92.95
2023-03-29T18:38:19.831Z,93.45
2023-03-29T18:40:47.235Z,93.82
2023-03-29T18:43:13.939Z,93.66
2023-03-29T18:45:40.274Z,93.60
2023-03-29T18:48:07.051Z,93.14
2023-03-29T18:50:34.381Z,92.82
2023-03-29T18:53:00.838Z,93.57
2023-03-29T18:55:30.993Z,93.85
2023-03-29T18:57:57.293Z,94.41
2023-03-29T19:00:23.644Z,94.80
2023-03-29T19:02:50.091Z,94.71
2023-03-29T19:05:16.472Z,94.80
2023-03-29T19:07:42.772Z,94.51
2023-03-29T19:10:09.289Z,94.34
2023-03-29T19:12:35.636Z,94.07
2023-03-29T19:15:01.958Z,94.32
2023-03-29T19:17:28.322Z,93.85
2023-03-29T19:19:54.685Z,94.03
2023-03-29T19:22:20.996Z,94.08
2023-03-29T19:24:47.288Z,94.14
2023-03-29T19:27:13.614Z,94.33
2023-03-29T19:29:40.076Z,94.49
2023-03-29T19:32:06.433Z,94.60
2023-03-29T19:34:33.326Z,95.00
2023-03-29T19:36:59.764Z,95.71
2023-03-29T19:39:26.578Z,96.49
2023-03-29T19:41:52.916Z,96.54
2023-03-29T19:44:19.693Z,97.57
2023-03-29T19:46:46.068Z,97.87
2023-03-29T19:49:12.415Z,98.13
2023-03-29T19:51:39.937Z,97.78
2023-03-29T19:54:06.274Z,97.37
2023-03-29T19:56:33.048Z,96.75
2023-03-29T19:58:59.373Z,96.89
2023-03-29T20:01:25.710Z,97.10
2023-03-29T20:03:52.032Z,97.27
2023-03-29T20:06:20.412Z,97.39
2023-03-29T20:08:47.047Z,98.24
2023-03-29T20:11:15.178Z,99.20
2023-03-29T20:13:43.339Z,98.93
2023-03-29T20:16:15.251Z,99.58
2023-03-29T20:18:42.315Z,99.42
2023-03-29T20:21:09.181Z,98.21
2023-03-29T20:23:35.845Z,96.79
2023-03-29T20:26:02.197Z,96.45
2023-03-29T20:28:28.484Z,96.12
2023-03-29T20:30:54.808Z,96.40
2023-03-29T20:33:21.651Z,96.43
2023-03-29T20:35:48.667Z,96.56
2023-03-29T20:38:15.429Z,96.30
2023-03-29T20:40:42.228Z,96.30
2023-03-29T20:43:09.190Z,95.84
2023-03-29T20:45:42.924Z,95.60
2023-03-29T20:48:17.139Z,94.74
2023-03-29T20:50:45.606Z,95.13
2023-03-29T20:53:11.986Z,95.33
2023-03-29T20:55:38.380Z,95.53
2023-03-29T20:58:05.673Z,95.35
2023-03-29T21:00:33.561Z,95.96
2023-03-29T21:03:00.363Z,95.92
2023-03-29T21:05:28.504Z,96.09
2023-03-29T21:07:54.980Z,96.23
2023-03-29T21:10:22.149Z,96.34
2023-03-29T21:12:48.435Z,96.33
2023-03-29T21:15:14.744Z,96.46
2023-03-29T21:17:41.081Z,96.74
2023-03-29T21:20:08.202Z,96.94
2023-03-29T21:22:34.944Z,97.06
2023-03-29T21:25:02.022Z,96.62
2023-03-29T21:27:28.405Z,96.83
2023-03-29T21:29:54.705Z,96.51
2023-03-29T21:32:21.014Z,96.20
2023-03-29T21:34:47.330Z,96.65
2023-03-29T21:37:15.289Z,96.45
2023-03-29T21:39:41.670Z,96.04
2023-03-29T21:42:08.018Z,95.70
2023-03-29T21:44:34.514Z,95.35
2023-03-29T21:47:01.084Z,95.24
2023-03-29T21:49:27.427Z,95.48
2023-03-29T21:51:53.753Z,95.38
2023-03-29T21:54:20.089Z,95.49
2023-03-29T21:56:46.459Z,95.07
2023-03-29T21:59:12.857Z,94.09
2023-03-29T22:01:39.217Z,94.22
2023-03-29T22:04:05.595Z,94.03
2023-03-29T22:06:31.911Z,94.43
2023-03-29T22:08:58.305Z,94.44
2023-03-29T22:11:24.625Z,94.81
2023-03-29T22:13:51.851Z,94.89
2023-03-29T22:16:18.289Z,94.93
2023-03-29T22:18:46.275Z,95.10
2023-03-29T22:21:15.564Z,95.59
2023-03-29T22:23:43.985Z,95.55
2023-03-29T22:26:12.263Z,95.78
2023-03-29T22:28:39.830Z,96.04
2023-03-29T22:31:14.343Z,96.44
2023-03-29T22:33:41.330Z,96.58
2023-03-29T22:36:16.574Z,96.01
2023-03-29T22:38:44.053Z,95.25
2023-03-29T22:41:10.553Z,94.87
2023-03-29T22:43:37.213Z,95.08
2023-03-29T22:46:05.303Z,94.81
2023-03-29T22:48:32.139Z,95.37
2023-03-29T22:50:58.923Z,94.72
2023-03-29T22:53:25.747Z,94.77
2023-03-29T22:55:52.155Z,94.54
2023-03-29T22:58:18.551Z,94.36
2023-03-29T23:00:44.853Z,94.09
2023-03-29T23:03:11.165Z,94.31
2023-03-29T23:05:37.448Z,94.66
2023-03-29T23:08:03.776Z,94.39
2023-03-29T23:10:30.145Z,94.39
2023-03-29T23:13:01.666Z,94.61
2023-03-29T23:15:29.478Z,94.64
2023-03-29T23:17:56.049Z,94.61
2023-03-29T23:20:22.378Z,94.25
2023-03-29T23:22:48.688Z,94.21
2023-03-29T23:25:15.094Z,93.77
2023-03-29T23:27:41.379Z,93.80
2023-03-29T23:30:08.147Z,93.79
2023-03-29T23:32:34.467Z,93.68
2023-03-29T23:35:00.796Z,94.00
2023-03-29T23:37:27.128Z,93.95
2023-03-29T23:39:53.422Z,94.55
2023-03-29T23:42:19.719Z,94.66
2023-03-29T23:44:46.032Z,94.27
2023-03-29T23:47:12.348Z,93.99
2023-03-29T23:49:38.654Z,93.52
2023-03-29T23:52:05.198Z,93.89
2023-03-29T23:54:31.530Z,93.92
2023-03-29T23:56:57.906Z,93.08
2023-03-29T23:59:24.349Z,92.52
